Terminal Aerodrome Forecast
Issued by NWS

Current Version | Previous Version | Text Only | Print | Product List | Glossary On
Versions: 1 2 3 4 5 6 7 8 9 10 11 12 13
546
FTUS45 KPSR 291744 AAA
TAFBLH
TAF AMD
KBLH 291744Z 2918/3018 18013KT P6SM FEW150 SCT250
     FM292000 18014G20KT P6SM FEW150 SCT250
     FM300500 09015G25KT 3SM BLDU VCTS FEW080CB SCT150 BKN250
     FM300900 18012KT P6SM SCT100 BKN200=

USA.gov is the U.S. government's official web portal to all federal, state and local government web resources and services.